sensor_id;sensor_type;location;lat;lon;timestamp;pressure;altitude;pressure_sealevel;temperature;humidity
64115;BME280;62188;35.640;139.748;2023-05-03T00:00:28;102571.19;;;23.31;24.25
64115;BME280;62188;35.640;139.748;2023-05-03T00:02:53;102569.68;;;23.23;24.46
64115;BME280;62188;35.640;139.748;2023-05-03T00:05:19;102568.04;;;23.51;24.12
64115;BME280;62188;35.640;139.748;2023-05-03T00:07:45;102567.32;;;23.65;24.02
64115;BME280;62188;35.640;139.748;2023-05-03T00:10:11;102562.50;;;23.70;23.97
64115;BME280;62188;35.640;139.748;2023-05-03T00:12:36;102559.23;;;23.54;23.92
64115;BME280;62188;35.640;139.748;2023-05-03T00:15:00;102555.14;;;23.82;24.04
64115;BME280;62188;35.640;139.748;2023-05-03T00:17:26;102548.53;;;23.92;23.99
64115;BME280;62188;35.640;139.748;2023-05-03T00:19:51;102544.46;;;23.86;23.97
64115;BME280;62188;35.640;139.748;2023-05-03T00:22:16;102538.69;;;23.95;24.12
64115;BME280;62188;35.640;139.748;2023-05-03T00:24:42;102539.43;;;23.77;24.19
64115;BME280;62188;35.640;139.748;2023-05-03T00:27:07;102541.95;;;23.62;24.50
64115;BME280;62188;35.640;139.748;2023-05-03T00:29:33;102540.41;;;23.73;24.63
64115;BME280;62188;35.640;139.748;2023-05-03T00:31:58;102540.52;;;24.13;24.69
64115;BME280;62188;35.640;139.748;2023-05-03T00:34:24;102540.98;;;23.86;24.91
64115;BME280;62188;35.640;139.748;2023-05-03T00:36:50;102534.36;;;23.92;25.03
64115;BME280;62188;35.640;139.748;2023-05-03T00:39:15;102525.07;;;23.80;25.12
64115;BME280;62188;35.640;139.748;2023-05-03T00:41:41;102524.86;;;24.02;25.31
64115;BME280;62188;35.640;139.748;2023-05-03T00:44:06;102522.54;;;24.43;25.60
64115;BME280;62188;35.640;139.748;2023-05-03T00:46:32;102518.79;;;24.43;25.28
64115;BME280;62188;35.640;139.748;2023-05-03T00:48:58;102513.34;;;24.42;25.42
64115;BME280;62188;35.640;139.748;2023-05-03T00:51:25;102510.56;;;24.68;25.20
64115;BME280;62188;35.640;139.748;2023-05-03T00:53:48;102508.35;;;24.28;25.45
64115;BME280;62188;35.640;139.748;2023-05-03T00:56:17;102503.92;;;24.42;25.59
64115;BME280;62188;35.640;139.748;2023-05-03T00:58:40;102498.31;;;24.56;25.57
64115;BME280;62188;35.640;139.748;2023-05-03T01:01:05;102491.33;;;24.22;26.28
64115;BME280;62188;35.640;139.748;2023-05-03T01:03:31;102490.55;;;24.63;26.12
64115;BME280;62188;35.640;139.748;2023-05-03T01:06:07;102489.37;;;24.62;25.88
64115;BME280;62188;35.640;139.748;2023-05-03T01:08:28;102488.65;;;24.72;25.98
64115;BME280;62188;35.640;139.748;2023-05-03T01:10:51;102490.50;;;24.76;26.54
64115;BME280;62188;35.640;139.748;2023-05-03T01:13:17;102485.82;;;24.09;27.02
64115;BME280;62188;35.640;139.748;2023-05-03T01:15:48;102481.77;;;24.42;27.23
64115;BME280;62188;35.640;139.748;2023-05-03T01:18:08;102477.84;;;24.48;27.30
64115;BME280;62188;35.640;139.748;2023-05-03T01:20:33;102474.77;;;24.78;27.27
64115;BME280;62188;35.640;139.748;2023-05-03T01:23:04;102482.26;;;24.85;27.15
64115;BME280;62188;35.640;139.748;2023-05-03T01:25:20;102473.96;;;24.09;27.61
64115;BME280;62188;35.640;139.748;2023-05-03T01:27:46;102474.23;;;24.45;27.66
64115;BME280;62188;35.640;139.748;2023-05-03T01:30:12;102469.83;;;24.47;27.53
64115;BME280;62188;35.640;139.748;2023-05-03T01:32:46;102474.25;;;24.16;27.32
64115;BME280;62188;35.640;139.748;2023-05-03T01:35:07;102475.19;;;24.38;27.56
64115;BME280;62188;35.640;139.748;2023-05-03T01:37:28;102474.40;;;24.59;27.65
64115;BME280;62188;35.640;139.748;2023-05-03T01:39:57;102470.64;;;24.75;27.74
64115;BME280;62188;35.640;139.748;2023-05-03T01:42:19;102471.03;;;24.80;27.85
64115;BME280;62188;35.640;139.748;2023-05-03T01:44:45;102468.11;;;24.26;28.06
64115;BME280;62188;35.640;139.748;2023-05-03T01:47:11;102466.27;;;24.10;28.24
64115;BME280;62188;35.640;139.748;2023-05-03T01:49:36;102460.88;;;24.34;28.46
64115;BME280;62188;35.640;139.748;2023-05-03T01:52:01;102452.43;;;24.33;28.95
64115;BME280;62188;35.640;139.748;2023-05-03T01:54:27;102446.22;;;24.57;29.09
64115;BME280;62188;35.640;139.748;2023-05-03T01:56:53;102444.18;;;24.90;28.78
64115;BME280;62188;35.640;139.748;2023-05-03T01:59:18;102440.11;;;24.40;28.91
64115;BME280;62188;35.640;139.748;2023-05-03T02:01:43;102432.41;;;24.82;29.02
64115;BME280;62188;35.640;139.748;2023-05-03T02:04:08;102427.02;;;24.82;28.73
64115;BME280;62188;35.640;139.748;2023-05-03T02:06:33;102429.79;;;24.46;28.50
64115;BME280;62188;35.640;139.748;2023-05-03T02:08:59;102423.24;;;24.49;28.52
64115;BME280;62188;35.640;139.748;2023-05-03T02:11:24;102432.73;;;24.81;28.50
64115;BME280;62188;35.640;139.748;2023-05-03T02:13:50;102423.46;;;24.49;28.51
64115;BME280;62188;35.640;139.748;2023-05-03T02:16:14;102413.62;;;24.33;28.68
64115;BME280;62188;35.640;139.748;2023-05-03T02:18:40;102410.93;;;24.28;28.53
64115;BME280;62188;35.640;139.748;2023-05-03T02:21:05;102412.96;;;24.63;28.27
64115;BME280;62188;35.640;139.748;2023-05-03T02:23:31;102409.55;;;24.73;28.37
64115;BME280;62188;35.640;139.748;2023-05-03T02:25:58;102398.88;;;24.49;28.08
64115;BME280;62188;35.640;139.748;2023-05-03T02:28:22;102400.84;;;25.02;28.74
64115;BME280;62188;35.640;139.748;2023-05-03T02:30:47;102394.74;;;25.04;27.82
64115;BME280;62188;35.640;139.748;2023-05-03T02:33:13;102387.28;;;24.68;27.94
64115;BME280;62188;35.640;139.748;2023-05-03T02:35:38;102394.64;;;24.90;28.30
64115;BME280;62188;35.640;139.748;2023-05-03T02:38:04;102386.06;;;24.65;28.52
64115;BME280;62188;35.640;139.748;2023-05-03T02:40:29;102382.79;;;24.96;28.63
64115;BME280;62188;35.640;139.748;2023-05-03T02:42:54;102378.66;;;24.95;28.23
64115;BME280;62188;35.640;139.748;2023-05-03T02:45:20;102374.61;;;24.93;27.49
64115;BME280;62188;35.640;139.748;2023-05-03T02:47:45;102376.68;;;24.90;27.46
64115;BME280;62188;35.640;139.748;2023-05-03T02:50:11;102373.22;;;24.77;28.25
64115;BME280;62188;35.640;139.748;2023-05-03T02:52:36;102378.01;;;24.72;28.43
64115;BME280;62188;35.640;139.748;2023-05-03T02:55:02;102367.37;;;24.75;27.89
64115;BME280;62188;35.640;139.748;2023-05-03T02:57:27;102365.69;;;24.15;27.94
64115;BME280;62188;35.640;139.748;2023-05-03T02:59:52;102353.80;;;24.55;28.13
64115;BME280;62188;35.640;139.748;2023-05-03T03:02:18;102358.23;;;24.64;27.93
64115;BME280;62188;35.640;139.748;2023-05-03T03:04:43;102358.58;;;24.72;28.10
64115;BME280;62188;35.640;139.748;2023-05-03T03:07:09;102357.35;;;24.27;28.63
64115;BME280;62188;35.640;139.748;2023-05-03T03:09:34;102359.60;;;24.65;28.74
64115;BME280;62188;35.640;139.748;2023-05-03T03:12:01;102355.55;;;24.23;28.80
64115;BME280;62188;35.640;139.748;2023-05-03T03:14:25;102351.52;;;24.52;28.84
64115;BME280;62188;35.640;139.748;2023-05-03T03:16:52;102347.18;;;24.67;28.66
64115;BME280;62188;35.640;139.748;2023-05-03T03:19:16;102330.87;;;24.24;29.15
64115;BME280;62188;35.640;139.748;2023-05-03T03:21:41;102321.13;;;24.28;28.79
64115;BME280;62188;35.640;139.748;2023-05-03T03:24:07;102310.99;;;24.68;28.16
64115;BME280;62188;35.640;139.748;2023-05-03T03:26:32;102317.32;;;24.37;26.87
64115;BME280;62188;35.640;139.748;2023-05-03T03:28:58;102316.70;;;23.98;27.14
64115;BME280;62188;35.640;139.748;2023-05-03T03:31:23;102317.86;;;24.19;27.17
64115;BME280;62188;35.640;139.748;2023-05-03T03:33:49;102321.67;;;24.24;27.24
64115;BME280;62188;35.640;139.748;2023-05-03T03:36:23;102317.16;;;24.53;27.36
64115;BME280;62188;35.640;139.748;2023-05-03T03:38:39;102313.11;;;23.84;28.86
64115;BME280;62188;35.640;139.748;2023-05-03T03:41:05;102314.81;;;23.53;30.64
64115;BME280;62188;35.640;139.748;2023-05-03T03:43:30;102306.02;;;23.96;30.07
64115;BME280;62188;35.640;139.748;2023-05-03T03:45:55;102300.20;;;24.37;30.48
64115;BME280;62188;35.640;139.748;2023-05-03T03:48:21;102302.46;;;24.55;28.42
64115;BME280;62188;35.640;139.748;2023-05-03T03:50:46;102296.14;;;24.49;28.56
64115;BME280;62188;35.640;139.748;2023-05-03T03:53:12;102295.89;;;24.94;28.20
64115;BME280;62188;35.640;139.748;2023-05-03T03:55:37;102295.35;;;24.71;27.27
64115;BME280;62188;35.640;139.748;2023-05-03T03:58:03;102286.35;;;24.87;27.47
64115;BME280;62188;35.640;139.748;2023-05-03T04:00:28;102288.31;;;24.98;27.69
64115;BME280;62188;35.640;139.748;2023-05-03T04:02:53;102279.76;;;25.03;28.12
64115;BME280;62188;35.640;139.748;2023-05-03T04:05:18;102274.03;;;24.78;28.38
64115;BME280;62188;35.640;139.748;2023-05-03T04:07:43;102264.90;;;24.66;28.45
64115;BME280;62188;35.640;139.748;2023-05-03T04:10:10;102263.41;;;24.69;28.65
64115;BME280;62188;35.640;139.748;2023-05-03T04:12:34;102256.21;;;24.76;28.75
64115;BME280;62188;35.640;139.748;2023-05-03T04:15:00;102240.97;;;24.76;29.04
64115;BME280;62188;35.640;139.748;2023-05-03T04:17:25;102249.21;;;24.67;29.72
64115;BME280;62188;35.640;139.748;2023-05-03T04:19:51;102244.39;;;25.32;29.39
64115;BME280;62188;35.640;139.748;2023-05-03T04:22:16;102242.88;;;25.05;29.54
64115;BME280;62188;35.640;139.748;2023-05-03T04:24:41;102247.02;;;25.09;29.12
64115;BME280;62188;35.640;139.748;2023-05-03T04:27:07;102243.82;;;25.20;29.08
64115;BME280;62188;35.640;139.748;2023-05-03T04:29:32;102245.45;;;24.98;29.01
64115;BME280;62188;35.640;139.748;2023-05-03T04:31:58;102238.63;;;25.21;29.12
64115;BME280;62188;35.640;139.748;2023-05-03T04:34:23;102243.59;;;24.61;29.64
64115;BME280;62188;35.640;139.748;2023-05-03T04:36:48;102233.82;;;24.75;29.95
64115;BME280;62188;35.640;139.748;2023-05-03T04:39:14;102232.28;;;24.79;29.92
64115;BME280;62188;35.640;139.748;2023-05-03T04:41:40;102231.37;;;24.53;30.06
64115;BME280;62188;35.640;139.748;2023-05-03T04:44:06;102232.70;;;24.15;30.23
64115;BME280;62188;35.640;139.748;2023-05-03T04:46:31;102232.45;;;24.30;30.57
64115;BME280;62188;35.640;139.748;2023-05-03T04:48:56;102223.81;;;24.24;31.44
64115;BME280;62188;35.640;139.748;2023-05-03T04:51:21;102224.66;;;24.39;30.97
64115;BME280;62188;35.640;139.748;2023-05-03T04:53:47;102215.26;;;24.25;31.14
64115;BME280;62188;35.640;139.748;2023-05-03T04:56:12;102210.97;;;24.61;31.18
64115;BME280;62188;35.640;139.748;2023-05-03T04:58:38;102215.34;;;24.57;32.85
64115;BME280;62188;35.640;139.748;2023-05-03T05:01:03;102202.44;;;23.96;32.01
64115;BME280;62188;35.640;139.748;2023-05-03T05:03:29;102202.55;;;23.96;31.64
64115;BME280;62188;35.640;139.748;2023-05-03T05:05:54;102198.44;;;23.88;31.93
64115;BME280;62188;35.640;139.748;2023-05-03T05:08:20;102202.84;;;23.55;32.19
64115;BME280;62188;35.640;139.748;2023-05-03T05:10:45;102183.71;;;23.57;32.18
64115;BME280;62188;35.640;139.748;2023-05-03T05:13:11;102186.04;;;23.57;32.58
64115;BME280;62188;35.640;139.748;2023-05-03T05:15:36;102182.06;;;23.59;32.31
64115;BME280;62188;35.640;139.748;2023-05-03T05:18:01;102174.43;;;23.24;32.71
64115;BME280;62188;35.640;139.748;2023-05-03T05:20:27;102176.50;;;23.14;32.86
64115;BME280;62188;35.640;139.748;2023-05-03T05:22:53;102184.52;;;23.02;32.99
64115;BME280;62188;35.640;139.748;2023-05-03T05:25:18;102170.52;;;23.17;33.24
64115;BME280;62188;35.640;139.748;2023-05-03T05:27:44;102165.63;;;22.86;33.37
64115;BME280;62188;35.640;139.748;2023-05-03T05:30:10;102156.03;;;23.09;33.38
64115;BME280;62188;35.640;139.748;2023-05-03T05:32:34;102155.15;;;23.09;33.40
64115;BME280;62188;35.640;139.748;2023-05-03T05:35:00;102157.58;;;23.13;33.49
64115;BME280;62188;35.640;139.748;2023-05-03T05:37:26;102150.76;;;23.12;33.63
64115;BME280;62188;35.640;139.748;2023-05-03T05:39:51;102147.01;;;23.10;33.48
64115;BME280;62188;35.640;139.748;2023-05-03T05:42:16;102145.11;;;22.59;33.31
64115;BME280;62188;35.640;139.748;2023-05-03T05:44:42;102145.08;;;22.56;32.99
64115;BME280;62188;35.640;139.748;2023-05-03T05:47:08;102137.90;;;22.96;32.76
64115;BME280;62188;35.640;139.748;2023-05-03T05:49:33;102140.69;;;22.57;32.74
64115;BME280;62188;35.640;139.748;2023-05-03T05:51:58;102138.08;;;23.02;32.80
64115;BME280;62188;35.640;139.748;2023-05-03T05:54:23;102140.28;;;22.92;33.02
64115;BME280;62188;35.640;139.748;2023-05-03T05:56:49;102141.29;;;23.22;33.09
64115;BME280;62188;35.640;139.748;2023-05-03T05:59:15;102142.76;;;23.01;32.85
64115;BME280;62188;35.640;139.748;2023-05-03T06:01:40;102138.54;;;22.95;33.30
64115;BME280;62188;35.640;139.748;2023-05-03T06:04:06;102139.60;;;22.84;33.36
64115;BME280;62188;35.640;139.748;2023-05-03T06:06:31;102137.24;;;22.95;33.58
64115;BME280;62188;35.640;139.748;2023-05-03T06:08:57;102143.35;;;22.92;33.49
64115;BME280;62188;35.640;139.748;2023-05-03T06:11:23;102146.68;;;23.08;33.40
64115;BME280;62188;35.640;139.748;2023-05-03T06:13:48;102152.17;;;22.79;33.43
64115;BME280;62188;35.640;139.748;2023-05-03T06:16:13;102143.78;;;23.04;33.42
64115;BME280;62188;35.640;139.748;2023-05-03T06:18:39;102137.90;;;22.97;33.20
64115;BME280;62188;35.640;139.748;2023-05-03T06:21:05;102137.63;;;23.16;33.35
64115;BME280;62188;35.640;139.748;2023-05-03T06:23:30;102140.82;;;23.07;33.62
64115;BME280;62188;35.640;139.748;2023-05-03T06:25:55;102131.82;;;23.11;33.44
64115;BME280;62188;35.640;139.748;2023-05-03T06:28:20;102136.14;;;22.79;33.63
64115;BME280;62188;35.640;139.748;2023-05-03T06:30:49;102122.45;;;22.88;33.02
64115;BME280;62188;35.640;139.748;2023-05-03T06:33:13;102134.51;;;22.56;32.91
64115;BME280;62188;35.640;139.748;2023-05-03T06:35:37;102130.18;;;23.05;32.77
64115;BME280;62188;35.640;139.748;2023-05-03T06:38:02;102126.98;;;23.05;32.67
64115;BME280;62188;35.640;139.748;2023-05-03T06:40:28;102121.16;;;23.68;32.61
64115;BME280;62188;35.640;139.748;2023-05-03T06:42:54;102128.57;;;23.38;32.62
64115;BME280;62188;35.640;139.748;2023-05-03T06:45:19;102117.89;;;23.01;32.70
64115;BME280;62188;35.640;139.748;2023-05-03T06:47:45;102122.01;;;23.24;32.67
64115;BME280;62188;35.640;139.748;2023-05-03T06:50:11;102118.66;;;23.04;32.71
64115;BME280;62188;35.640;139.748;2023-05-03T06:52:36;102124.99;;;23.10;32.65
64115;BME280;62188;35.640;139.748;2023-05-03T06:55:02;102121.44;;;23.30;32.87
64115;BME280;62188;35.640;139.748;2023-05-03T06:57:27;102119.05;;;23.08;32.79
64115;BME280;62188;35.640;139.748;2023-05-03T06:59:52;102112.36;;;23.18;32.90
64115;BME280;62188;35.640;139.748;2023-05-03T07:02:18;102115.89;;;23.32;32.69
64115;BME280;62188;35.640;139.748;2023-05-03T07:04:43;102117.34;;;23.09;33.05
64115;BME280;62188;35.640;139.748;2023-05-03T07:07:09;102113.44;;;23.21;33.42
64115;BME280;62188;35.640;139.748;2023-05-03T07:09:34;102120.51;;;23.03;33.57
64115;BME280;62188;35.640;139.748;2023-05-03T07:11:59;102124.50;;;23.30;33.49
64115;BME280;62188;35.640;139.748;2023-05-03T07:14:25;102125.09;;;23.32;33.36
64115;BME280;62188;35.640;139.748;2023-05-03T07:16:50;102136.21;;;22.94;33.37
64115;BME280;62188;35.640;139.748;2023-05-03T07:19:16;102131.65;;;22.92;33.44
64115;BME280;62188;35.640;139.748;2023-05-03T07:21:41;102126.08;;;23.07;32.95
64115;BME280;62188;35.640;139.748;2023-05-03T07:24:07;102121.89;;;22.76;32.80
64115;BME280;62188;35.640;139.748;2023-05-03T07:26:32;102117.45;;;22.95;32.71
64115;BME280;62188;35.640;139.748;2023-05-03T07:28:58;102118.23;;;22.93;32.58
64115;BME280;62188;35.640;139.748;2023-05-03T07:31:24;102125.44;;;22.95;32.80
64115;BME280;62188;35.640;139.748;2023-05-03T07:33:49;102124.68;;;22.77;33.47
64115;BME280;62188;35.640;139.748;2023-05-03T07:36:14;102124.41;;;22.58;33.22
64115;BME280;62188;35.640;139.748;2023-05-03T07:38:40;102123.67;;;22.69;33.39
64115;BME280;62188;35.640;139.748;2023-05-03T07:41:04;102122.02;;;22.90;32.81
64115;BME280;62188;35.640;139.748;2023-05-03T07:43:30;102116.03;;;22.29;33.32
64115;BME280;62188;35.640;139.748;2023-05-03T07:45:56;102119.77;;;22.69;33.35
64115;BME280;62188;35.640;139.748;2023-05-03T07:48:21;102121.19;;;22.67;33.35
64115;BME280;62188;35.640;139.748;2023-05-03T07:50:47;102121.34;;;22.77;33.25
64115;BME280;62188;35.640;139.748;2023-05-03T07:53:12;102113.42;;;22.82;33.17
64115;BME280;62188;35.640;139.748;2023-05-03T07:55:38;102109.43;;;23.26;33.20
64115;BME280;62188;35.640;139.748;2023-05-03T07:58:03;102107.90;;;23.39;33.01
64115;BME280;62188;35.640;139.748;2023-05-03T08:00:29;102113.89;;;22.97;32.96
64115;BME280;62188;35.640;139.748;2023-05-03T08:02:54;102118.06;;;23.18;32.73
64115;BME280;62188;35.640;139.748;2023-05-03T08:05:20;102112.12;;;22.89;32.70
64115;BME280;62188;35.640;139.748;2023-05-03T08:07:44;102109.60;;;22.91;32.72
64115;BME280;62188;35.640;139.748;2023-05-03T08:10:11;102111.58;;;23.28;32.82
64115;BME280;62188;35.640;139.748;2023-05-03T08:12:36;102112.98;;;23.13;33.24
64115;BME280;62188;35.640;139.748;2023-05-03T08:15:10;102109.16;;;22.85;33.40
64115;BME280;62188;35.640;139.748;2023-05-03T08:17:26;102110.06;;;22.67;33.43
64115;BME280;62188;35.640;139.748;2023-05-03T08:19:54;102115.68;;;22.93;33.28
64115;BME280;62188;35.640;139.748;2023-05-03T08:22:17;102112.22;;;22.65;33.54
64115;BME280;62188;35.640;139.748;2023-05-03T08:24:43;102116.34;;;23.05;33.46
64115;BME280;62188;35.640;139.748;2023-05-03T08:27:09;102118.35;;;23.09;32.52
64115;BME280;62188;35.640;139.748;2023-05-03T08:29:34;102118.35;;;22.78;31.90
64115;BME280;62188;35.640;139.748;2023-05-03T08:31:59;102120.41;;;22.73;32.16
64115;BME280;62188;35.640;139.748;2023-05-03T08:34:24;102115.90;;;22.79;32.11
64115;BME280;62188;35.640;139.748;2023-05-03T08:36:50;102123.55;;;23.09;32.00
64115;BME280;62188;35.640;139.748;2023-05-03T08:39:15;102119.76;;;22.37;32.51
64115;BME280;62188;35.640;139.748;2023-05-03T08:41:41;102109.57;;;22.41;32.62
64115;BME280;62188;35.640;139.748;2023-05-03T08:44:09;102113.15;;;22.88;32.48
64115;BME280;62188;35.640;139.748;2023-05-03T08:46:32;102116.42;;;22.83;32.60
64115;BME280;62188;35.640;139.748;2023-05-03T08:48:59;102114.99;;;23.00;32.70
64115;BME280;62188;35.640;139.748;2023-05-03T08:51:24;102110.43;;;23.16;32.68
64115;BME280;62188;35.640;139.748;2023-05-03T08:53:48;102111.11;;;23.29;32.78
64115;BME280;62188;35.640;139.748;2023-05-03T08:56:19;102113.82;;;23.15;32.66
64115;BME280;62188;35.640;139.748;2023-05-03T08:58:39;102112.57;;;23.17;32.95
64115;BME280;62188;35.640;139.748;2023-05-03T09:01:06;102105.70;;;22.86;33.69
64115;BME280;62188;35.640;139.748;2023-05-03T09:03:30;102113.03;;;22.71;34.06
64115;BME280;62188;35.640;139.748;2023-05-03T09:05:56;102109.55;;;22.69;34.35
64115;BME280;62188;35.640;139.748;2023-05-03T09:08:21;102111.58;;;22.86;34.66
64115;BME280;62188;35.640;139.748;2023-05-03T09:10:46;102109.35;;;23.00;34.84
64115;BME280;62188;35.640;139.748;2023-05-03T09:13:12;102105.35;;;22.98;35.14
64115;BME280;62188;35.640;139.748;2023-05-03T09:15:37;102099.36;;;22.61;35.28
64115;BME280;62188;35.640;139.748;2023-05-03T09:18:10;102097.92;;;22.45;35.40
64115;BME280;62188;35.640;139.748;2023-05-03T09:20:34;102102.82;;;22.59;35.49
64115;BME280;62188;35.640;139.748;2023-05-03T09:22:54;102103.15;;;22.71;35.64
64115;BME280;62188;35.640;139.748;2023-05-03T09:25:20;102110.10;;;22.53;35.61
64115;BME280;62188;35.640;139.748;2023-05-03T09:27:47;102098.85;;;22.55;35.74
64115;BME280;62188;35.640;139.748;2023-05-03T09:30:18;102100.36;;;22.52;35.83
64115;BME280;62188;35.640;139.748;2023-05-03T09:35:08;102101.63;;;22.06;36.57
64115;BME280;62188;35.640;139.748;2023-05-03T09:37:35;102111.13;;;22.27;36.34
64115;BME280;62188;35.640;139.748;2023-05-03T09:42:18;102111.27;;;22.76;36.06
64115;BME280;62188;35.640;139.748;2023-05-03T09:44:46;102114.85;;;22.53;36.02
64115;BME280;62188;35.640;139.748;2023-05-03T09:47:10;102125.92;;;22.46;36.11
64115;BME280;62188;35.640;139.748;2023-05-03T09:49:35;102127.00;;;22.09;36.41
64115;BME280;62188;35.640;139.748;2023-05-03T09:52:00;102124.24;;;22.41;36.37
64115;BME280;62188;35.640;139.748;2023-05-03T09:54:24;102128.40;;;22.14;36.47
64115;BME280;62188;35.640;139.748;2023-05-03T09:56:50;102132.12;;;22.46;36.44
64115;BME280;62188;35.640;139.748;2023-05-03T09:59:15;102138.14;;;22.15;36.62
64115;BME280;62188;35.640;139.748;2023-05-03T10:01:41;102140.89;;;22.22;36.53
64115;BME280;62188;35.640;139.748;2023-05-03T10:04:07;102136.54;;;22.52;36.53
64115;BME280;62188;35.640;139.748;2023-05-03T10:06:37;102133.38;;;22.52;36.66
64115;BME280;62188;35.640;139.748;2023-05-03T10:09:02;102134.12;;;22.09;36.55
64115;BME280;62188;35.640;139.748;2023-05-03T10:11:25;102138.14;;;22.34;36.65
64115;BME280;62188;35.640;139.748;2023-05-03T10:13:48;102138.04;;;22.28;36.77
64115;BME280;62188;35.640;139.748;2023-05-03T10:16:16;102139.69;;;22.58;36.82
64115;BME280;62188;35.640;139.748;2023-05-03T10:18:44;102143.18;;;22.42;36.67
64115;BME280;62188;35.640;139.748;2023-05-03T10:21:08;102138.44;;;22.39;36.64
64115;BME280;62188;35.640;139.748;2023-05-03T10:23:30;102136.24;;;22.38;36.50
64115;BME280;62188;35.640;139.748;2023-05-03T10:26:14;102132.76;;;22.66;36.39
64115;BME280;62188;35.640;139.748;2023-05-03T10:28:21;102134.80;;;22.69;36.40
64115;BME280;62188;35.640;139.748;2023-05-03T10:30:46;102140.11;;;22.30;36.24
64115;BME280;62188;35.640;139.748;2023-05-03T10:35:40;102142.09;;;22.78;36.55
64115;BME280;62188;35.640;139.748;2023-05-03T10:42:54;102150.08;;;22.70;36.55
64115;BME280;62188;35.640;139.748;2023-05-03T10:45:24;102157.43;;;22.66;36.31
64115;BME280;62188;35.640;139.748;2023-05-03T10:47:44;102160.61;;;22.35;36.40
64115;BME280;62188;35.640;139.748;2023-05-03T10:50:24;102158.69;;;22.79;36.35
64115;BME280;62188;35.640;139.748;2023-05-03T10:52:46;102160.37;;;22.91;36.27
64115;BME280;62188;35.640;139.748;2023-05-03T10:55:00;102169.40;;;22.72;36.18
64115;BME280;62188;35.640;139.748;2023-05-03T10:57:27;102175.61;;;22.75;35.87
64115;BME280;62188;35.640;139.748;2023-05-03T10:59:52;102174.93;;;22.82;35.71
64115;BME280;62188;35.640;139.748;2023-05-03T11:02:21;102177.04;;;22.59;35.28
64115;BME280;62188;35.640;139.748;2023-05-03T11:04:45;102181.51;;;22.87;35.40
64115;BME280;62188;35.640;139.748;2023-05-03T11:07:08;102178.37;;;22.67;35.34
64115;BME280;62188;35.640;139.748;2023-05-03T11:09:34;102179.30;;;22.62;34.34
64115;BME280;62188;35.640;139.748;2023-05-03T11:11:59;102181.12;;;22.48;34.25
64115;BME280;62188;35.640;139.748;2023-05-03T11:14:24;102189.31;;;22.70;34.16
64115;BME280;62188;35.640;139.748;2023-05-03T11:16:50;102188.65;;;22.50;34.27
64115;BME280;62188;35.640;139.748;2023-05-03T11:19:16;102190.61;;;22.47;34.19
64115;BME280;62188;35.640;139.748;2023-05-03T11:21:41;102190.29;;;22.67;34.25
64115;BME280;62188;35.640;139.748;2023-05-03T11:24:06;102190.17;;;22.43;33.87
64115;BME280;62188;35.640;139.748;2023-05-03T11:26:36;102188.57;;;22.29;33.87
64115;BME280;62188;35.640;139.748;2023-05-03T11:28:57;102187.57;;;22.56;33.81
64115;BME280;62188;35.640;139.748;2023-05-03T11:31:22;102192.99;;;22.67;33.78
64115;BME280;62188;35.640;139.748;2023-05-03T11:33:49;102190.74;;;22.73;33.62
64115;BME280;62188;35.640;139.748;2023-05-03T11:36:14;102195.51;;;22.44;33.50
64115;BME280;62188;35.640;139.748;2023-05-03T11:38:39;102188.22;;;22.48;33.60
64115;BME280;62188;35.640;139.748;2023-05-03T11:41:11;102186.65;;;21.98;33.78
64115;BME280;62188;35.640;139.748;2023-05-03T11:43:30;102187.20;;;22.41;33.81
64115;BME280;62188;35.640;139.748;2023-05-03T11:45:57;102184.33;;;21.92;33.87
64115;BME280;62188;35.640;139.748;2023-05-03T11:48:21;102186.78;;;22.14;33.90
64115;BME280;62188;35.640;139.748;2023-05-03T11:50:47;102191.73;;;22.00;33.84
64115;BME280;62188;35.640;139.748;2023-05-03T11:53:12;102191.30;;;22.18;33.81
64115;BME280;62188;35.640;139.748;2023-05-03T11:55:39;102189.59;;;22.47;33.84
64115;BME280;62188;35.640;139.748;2023-05-03T11:58:02;102190.94;;;22.47;33.85
64115;BME280;62188;35.640;139.748;2023-05-03T12:00:29;102186.99;;;22.31;33.69
64115;BME280;62188;35.640;139.748;2023-05-03T12:02:54;102188.72;;;22.38;33.74
64115;BME280;62188;35.640;139.748;2023-05-03T12:05:20;102188.07;;;22.19;33.74
64115;BME280;62188;35.640;139.748;2023-05-03T12:07:44;102186.60;;;22.47;33.79
64115;BME280;62188;35.640;139.748;2023-05-03T12:10:16;102186.58;;;22.46;33.85
64115;BME280;62188;35.640;139.748;2023-05-03T12:12:34;102182.26;;;22.11;34.27
64115;BME280;62188;35.640;139.748;2023-05-03T12:15:01;102182.75;;;22.34;34.36
64115;BME280;62188;35.640;139.748;2023-05-03T12:17:35;102186.34;;;22.13;34.45
64115;BME280;62188;35.640;139.748;2023-05-03T12:19:51;102184.01;;;22.47;34.46
64115;BME280;62188;35.640;139.748;2023-05-03T12:22:20;102179.75;;;22.27;34.58
64115;BME280;62188;35.640;139.748;2023-05-03T12:24:42;102174.51;;;22.04;34.61
64115;BME280;62188;35.640;139.748;2023-05-03T12:27:08;102179.19;;;22.04;34.67
64115;BME280;62188;35.640;139.748;2023-05-03T12:29:33;102184.04;;;22.53;34.77
64115;BME280;62188;35.640;139.748;2023-05-03T12:31:58;102186.23;;;22.44;34.68